Time;durP1;ratioP1;P1;durP2;ratioP2;P2;SDS_P1;SDS_P2;PMS_P1;PMS_P2;Temp;Humidity;BMP_temperature;BMP_pressure;BME280_temperature;BME280_humidity;BME280_pressure;Samples;Min_cycle;Max_cycle;Signal;HPM_P1;HPM_P2
2024/04/15 00:01:25;;;;;;;0.10;0.10;;;;;;;-145.06;100.00;53090.50;11317052;26;20240;-66
2024/04/15 00:06:25;;;;;;;0.00;0.00;;;;;;;-145.06;100.00;53098.59;11303028;26;20414;-66
2024/04/15 00:11:25;;;;;;;0.00;0.00;;;;;;;-145.06;100.00;53108.72;11306725;26;20482;-66
2024/04/15 00:16:26;;;;;;;0.00;0.00;;;;;;;-145.06;100.00;53072.28;11315436;26;20439;-66
2024/04/15 00:21:26;;;;;;;0.00;0.00;;;;;;;-145.06;100.00;53078.34;11303763;26;20686;-66
2024/04/15 00:26:26;;;;;;;0.00;0.00;;;;;;;-145.06;100.00;53062.16;11302638;26;20451;-65
2024/04/15 00:31:26;;;;;;;0.10;0.10;;;;;;;-145.06;100.00;53066.22;11307653;26;20006;-66
2024/04/15 00:36:27;;;;;;;0.10;0.10;;;;;;;-145.06;100.00;53070.25;11301234;26;20013;-66
2024/04/15 00:41:27;;;;;;;0.00;0.00;;;;;;;-145.06;100.00;53114.81;11302861;26;19999;-66
2024/04/15 00:46:27;;;;;;;0.00;0.00;;;;;;;-145.06;100.00;53084.44;11311627;26;19998;-66
2024/04/15 00:51:28;;;;;;;0.00;0.00;;;;;;;-145.06;100.00;53104.69;11307535;26;20277;-65
2024/04/15 00:56:28;;;;;;;0.00;0.00;;;;;;;-145.06;100.00;53104.69;11313978;26;20006;-66
2024/04/15 01:01:29;;;;;;;0.10;0.10;;;;;;;-145.06;100.00;53106.69;11311350;26;20412;-65
2024/04/15 01:06:29;;;;;;;0.00;0.00;;;;;;;-145.06;100.00;53114.81;11313802;26;20074;-65
2024/04/15 01:11:30;;;;;;;0.10;0.10;;;;;;;-145.06;100.00;53104.69;11304380;26;20397;-65
2024/04/15 01:16:35;;;;;;;0.00;0.00;;;;;;;-145.06;100.00;53100.63;11306868;26;20078;-66
2024/04/15 01:21:35;;;;;;;0.00;0.00;;;;;;;-145.06;100.00;53128.97;11309089;26;20263;-65
2024/04/15 01:26:35;;;;;;;0.00;0.00;;;;;;;-145.06;100.00;53131.00;11303013;26;20451;-66
2024/04/15 01:31:36;;;;;;;0.00;0.00;;;;;;;-145.06;100.00;53131.00;11305345;26;19998;-66
2024/04/15 01:36:36;;;;;;;0.00;0.00;;;;;;;-145.06;100.00;53118.84;11307752;26;20402;-66
2024/04/15 01:41:37;;;;;;;0.00;0.00;;;;;;;-145.06;100.00;53128.97;11309030;26;20006;-65
2024/04/15 01:46:38;;;;;;;0.00;0.00;;;;;;;-145.06;100.00;53143.16;11309475;26;20013;-65
2024/04/15 01:51:38;;;;;;;0.00;0.00;;;;;;;-145.06;100.00;53155.28;11311564;26;19998;-65
2024/04/15 01:56:38;;;;;;;0.00;0.00;;;;;;;-145.06;100.00;53183.66;11305817;26;19998;-65
2024/04/15 02:01:38;;;;;;;0.00;0.00;;;;;;;-145.06;100.00;53191.75;11306321;26;19998;-65
2024/04/15 02:06:39;;;;;;;0.00;0.00;;;;;;;-145.06;100.00;53197.81;11310589;26;19998;-65
2024/04/15 02:11:39;;;;;;;0.00;0.00;;;;;;;-145.06;100.00;53173.53;11312065;26;20009;-66
2024/04/15 02:16:39;;;;;;;0.00;0.00;;;;;;;-145.06;100.00;53116.81;11308998;26;20047;-65
2024/04/15 02:21:40;;;;;;;0.00;0.00;;;;;;;-145.06;100.00;53112.78;11305063;26;20002;-65
2024/04/15 02:26:40;;;;;;;0.00;0.00;;;;;;;-145.06;100.00;53094.56;11311913;26;20002;-65
2024/04/15 02:31:40;;;;;;;0.00;0.00;;;;;;;-145.06;100.00;53062.16;11309430;26;20007;-65
2024/04/15 02:36:41;;;;;;;0.00;0.00;;;;;;;-145.06;100.00;53054.06;11311802;26;20022;-65
2024/04/15 02:41:41;;;;;;;0.00;0.00;;;;;;;-145.06;100.00;53033.81;11313587;26;20448;-65
2024/04/15 02:46:41;;;;;;;0.00;0.00;;;;;;;-145.06;100.00;53058.09;11306822;26;20095;-64
2024/04/15 02:51:42;;;;;;;0.00;0.00;;;;;;;-145.06;100.00;53043.94;11307259;26;20007;-65
2024/04/15 02:56:43;;;;;;;0.00;0.00;;;;;;;-145.06;100.00;53043.94;11303424;26;20072;-65
2024/04/15 03:01:43;;;;;;;0.00;0.00;;;;;;;-145.06;100.00;53050.00;11314181;26;20467;-65
2024/04/15 03:06:43;;;;;;;0.00;0.00;;;;;;;-145.06;100.00;53021.66;11306474;26;19998;-65
2024/04/15 03:11:43;;;;;;;0.00;0.00;;;;;;;-145.06;100.00;53027.75;11305527;26;20006;-65
2024/04/15 03:16:44;;;;;;;0.00;0.00;;;;;;;-145.06;100.00;53021.66;11304520;26;20005;-66
2024/04/15 03:21:45;;;;;;;0.05;0.05;;;;;;;-145.06;100.00;53025.72;11304186;26;20048;-66
2024/04/15 03:26:45;;;;;;;0.00;0.00;;;;;;;-145.06;100.00;53021.66;11301195;26;20014;-66
2024/04/15 03:31:45;;;;;;;0.00;0.00;;;;;;;-145.06;100.00;52979.16;11309444;26;20459;-67
2024/04/15 03:36:46;;;;;;;0.00;0.00;;;;;;;-145.06;100.00;53007.50;11306269;26;20003;-66
2024/04/15 03:41:46;;;;;;;0.00;0.00;;;;;;;-145.06;100.00;52995.34;11313471;26;20077;-66
2024/04/15 03:46:46;;;;;;;0.00;0.00;;;;;;;-145.06;100.00;52948.78;11307370;26;19999;-67
2024/04/15 03:51:46;;;;;;;0.00;0.00;;;;;;;-145.06;100.00;52958.91;11308462;26;20332;-67
2024/04/15 03:56:47;;;;;;;0.00;0.00;;;;;;;-145.06;100.00;52960.91;11296966;26;19998;-67
2024/04/15 04:01:47;;;;;;;0.00;0.00;;;;;;;-145.06;100.00;52991.28;11259975;26;20389;-65
2024/04/15 04:06:48;;;;;;;0.00;0.00;;;;;;;-145.06;100.00;52964.97;11289619;26;20047;-67
2024/04/15 04:11:48;;;;;;;0.00;0.00;;;;;;;-145.06;100.00;52962.94;11309136;26;19998;-66
2024/04/15 04:16:49;;;;;;;0.03;0.03;;;;;;;-145.06;100.00;52946.75;11294227;26;20017;-67
2024/04/15 04:21:49;;;;;;;0.00;0.00;;;;;;;-145.06;100.00;52928.53;11296581;26;19999;-65
2024/04/15 04:26:49;;;;;;;0.00;0.00;;;;;;;-145.06;100.00;52894.09;11296193;26;20003;-66
2024/04/15 04:31:49;;;;;;;0.00;0.00;;;;;;;-145.06;100.00;52857.66;11308616;26;20002;-66
2024/04/15 04:36:51;;;;;;;0.00;0.00;;;;;;;-145.06;100.00;52807.06;11295743;26;20018;-66
2024/04/15 04:41:52;;;;;;;0.00;0.00;;;;;;;-145.06;100.00;52720.00;11304561;26;20523;-66
2024/04/15 04:46:52;;;;;;;0.10;0.10;;;;;;;-145.06;100.00;52705.81;11300109;26;20002;-64
2024/04/15 04:51:52;;;;;;;0.10;0.10;;;;;;;-145.06;100.00;52691.66;11306726;26;20003;-65
2024/04/15 04:56:52;;;;;;;0.00;0.00;;;;;;;-145.06;100.00;52756.44;11301363;26;20364;-66
2024/04/15 05:01:53;;;;;;;0.00;0.00;;;;;;;-145.06;100.00;52699.75;11304262;26;20507;-65
2024/04/15 05:06:54;;;;;;;0.00;0.00;;;;;;;-145.06;100.00;52632.94;11305141;26;20312;-66
2024/04/15 05:11:55;;;;;;;0.10;0.10;;;;;;;-145.06;96.19;52624.84;11296332;26;19999;-65
2024/04/15 05:16:55;;;;;;;0.10;0.10;;;;;;;-145.06;93.05;52754.41;11308014;26;19998;-65
2024/04/15 05:21:55;;;;;;;0.10;0.10;;;;;;;-145.06;95.67;52685.56;11304752;26;20062;-65
2024/04/15 05:26:55;;;;;;;0.10;0.10;;;;;;;-145.06;93.91;52746.31;11301472;26;20002;-66
2024/04/15 05:31:56;;;;;;;0.03;0.03;;;;;;;-145.06;93.42;52794.91;11309252;26;20014;-66
2024/04/15 05:36:56;;;;;;;0.10;0.10;;;;;;;-145.06;95.08;52568.16;11305236;26;20014;-66
2024/04/15 05:41:57;;;;;;;0.10;0.10;;;;;;;-145.06;84.69;52462.88;11297510;26;19998;-66
2024/04/15 05:46:57;;;;;;;0.10;0.10;;;;;;;-145.06;75.45;52576.25;11293146;26;20027;-66
2024/04/15 05:51:57;;;;;;;0.10;0.10;;;;;;;-145.06;74.01;52689.63;11301001;26;20066;-66
2024/04/15 05:56:57;;;;;;;0.10;0.10;;;;;;;-145.06;73.68;52551.97;11322624;26;20009;-66
2024/04/15 06:01:58;;;;;;;0.10;0.10;;;;;;;-145.06;68.74;52529.69;11303862;26;19998;-66
2024/04/15 06:06:59;;;;;;;0.00;0.00;;;;;;;-145.06;64.56;52590.44;11307256;26;20039;-67
2024/04/15 06:11:59;;;;;;;0.10;0.10;;;;;;;-145.06;69.02;52768.59;11307069;26;20017;-66
2024/04/15 06:17:00;;;;;;;0.10;0.10;;;;;;;-145.06;77.38;52835.41;11288089;26;20003;-66
2024/04/15 06:22:01;;;;;;;0.10;0.10;;;;;;;-145.06;85.16;52855.63;11303752;26;20009;-66
2024/04/15 06:27:02;;;;;;;0.00;0.00;;;;;;;-145.06;89.66;52673.44;11305330;26;20006;-66
2024/04/15 06:32:02;;;;;;;0.10;0.10;;;;;;;-145.06;81.07;52661.28;11307154;26;19999;-66
2024/04/15 06:37:03;;;;;;;0.00;0.00;;;;;;;-145.06;73.33;52560.06;11301380;26;20048;-66
2024/04/15 06:42:04;;;;;;;0.00;0.00;;;;;;;-145.06;69.25;52438.59;11303868;26;20048;-66
2024/04/15 06:47:04;;;;;;;0.10;0.10;;;;;;;-145.06;62.74;52398.09;11304391;26;20230;-66
2024/04/15 06:52:06;;;;;;;0.10;0.10;;;;;;;-145.06;57.74;52300.94;11310969;26;20344;-67
2024/04/15 06:57:06;;;;;;;0.10;0.10;;;;;;;-145.06;51.11;52315.09;11291038;26;20011;-66
2024/04/15 07:02:07;;;;;;;0.03;0.03;;;;;;;-145.06;50.96;52357.63;11303344;26;20051;-66
2024/04/15 07:07:07;;;;;;;0.10;0.10;;;;;;;-145.06;49.05;52349.50;11311274;26;19999;-67
2024/04/15 07:12:09;;;;;;;0.00;0.00;;;;;;;-145.06;48.48;52327.25;11300750;26;19998;-66
2024/04/15 07:17:10;;;;;;;0.00;0.00;;;;;;;-145.06;47.95;52264.50;11288035;26;20017;-67
2024/04/15 07:22:10;;;;;;;0.10;0.10;;;;;;;-145.06;44.96;52329.28;11307046;26;19999;-67
2024/04/15 07:27:10;;;;;;;0.00;0.00;;;;;;;-145.06;46.71;52319.16;11304086;26;20002;-67
2024/04/15 07:32:11;;;;;;;0.10;0.10;;;;;;;-145.06;44.63;52365.72;11303602;26;20283;-65
2024/04/15 07:37:11;;;;;;;0.10;0.10;;;;;;;-145.06;44.91;52296.88;11301904;26;20002;-65
2024/04/15 07:42:12;;;;;;;0.08;0.08;;;;;;;-145.06;45.14;52296.88;11300444;26;20015;-66
2024/04/15 07:47:12;;;;;;;0.10;0.10;;;;;;;-145.06;44.46;52296.88;11311413;26;20002;-66
2024/04/15 07:52:12;;;;;;;0.10;0.10;;;;;;;-145.06;44.58;52315.09;11302996;26;20011;-68
2024/04/15 07:57:12;;;;;;;0.10;0.10;;;;;;;-145.06;44.91;52284.75;11301717;26;20019;-68
2024/04/15 08:02:13;;;;;;;0.10;0.10;;;;;;;-145.06;44.26;52377.84;11293705;26;20006;-66
2024/04/15 08:07:13;;;;;;;0.10;0.10;;;;;;;-145.06;44.80;52377.84;11292961;26;20013;-68
2024/04/15 08:12:13;;;;;;;0.00;0.00;;;;;;;-145.06;44.41;52377.84;11299706;26;20444;-68
2024/04/15 08:17:14;;;;;;;0.10;0.10;;;;;;;-145.06;44.12;52452.75;11302964;26;20014;-68
2024/04/15 08:22:14;;;;;;;0.10;0.10;;;;;;;-145.06;45.82;52361.66;11302833;26;20010;-68
2024/04/15 08:27:14;;;;;;;0.10;0.10;;;;;;;-145.06;43.28;52460.84;11294439;26;20031;-68
2024/04/15 08:32:14;;;;;;;0.10;0.10;;;;;;;-145.06;44.22;52442.63;11304863;26;20126;-68
2024/04/15 08:37:15;;;;;;;0.00;0.00;;;;;;;-145.06;43.39;52560.06;11287883;26;20068;-67
2024/04/15 08:42:34;;;;;;;0.10;0.10;;;;;;;-145.06;45.33;52594.47;11286426;26;20003;-67
2024/04/15 08:47:35;;;;;;;0.10;0.10;;;;;;;-145.06;45.12;52649.13;11287628;26;20014;-68
2024/04/15 08:52:37;;;;;;;0.10;0.10;;;;;;;-145.06;46.26;52720.00;11287384;26;21275;-68
2024/04/15 08:57:38;;;;;;;0.00;0.00;;;;;;;-145.06;47.60;52707.84;11295979;26;19999;-67
2024/04/15 09:02:38;;;;;;;0.10;0.10;;;;;;;-145.06;48.48;52715.94;11286540;26;19998;-68
2024/04/15 09:07:40;;;;;;;0.00;0.00;;;;;;;-145.06;48.81;52618.75;11307684;26;20002;-68
2024/04/15 09:12:41;;;;;;;0.00;0.00;;;;;;;-145.06;45.84;52699.75;11312033;26;20003;-68
2024/04/15 09:17:41;;;;;;;0.00;0.00;;;;;;;-145.06;46.52;52697.72;11297694;26;20013;-68
2024/04/15 09:22:42;;;;;;;0.00;0.00;;;;;;;-145.06;46.50;52736.19;11304364;26;20448;-68
2024/04/15 09:27:43;;;;;;;0.00;0.00;;;;;;;-145.06;47.60;52736.19;11301238;26;20019;-68
2024/04/15 09:32:43;;;;;;;0.10;0.10;;;;;;;-145.06;47.61;52790.84;11306083;26;20017;-68
2024/04/15 09:37:43;;;;;;;0.00;0.00;;;;;;;-145.06;48.98;52780.72;11310096;26;20024;-69
2024/04/15 09:42:45;;;;;;;0.00;0.00;;;;;;;-145.06;49.20;52770.59;11302440;26;20007;-68
2024/04/15 09:47:46;;;;;;;0.00;0.00;;;;;;;-145.06;51.60;52701.78;11310046;26;20002;-68
2024/04/15 09:52:58;;;;;;;0.10;0.10;;;;;;;-145.06;47.78;52667.34;11314855;26;20003;-68
2024/04/15 09:58:02;;;;;;;0.00;0.00;;;;;;;-145.06;46.74;52701.78;11295046;26;19999;-68
2024/04/15 10:03:16;;;;;;;0.00;0.00;;;;;;;-145.06;47.11;52711.91;11299356;26;20002;-68
2024/04/15 10:08:17;;;;;;;0.00;0.00;;;;;;;-145.06;47.81;52744.28;11307435;26;20075;-69
2024/04/15 10:13:18;;;;;;;0.10;0.10;;;;;;;-145.06;48.16;52748.34;11311557;26;20014;-68
2024/04/15 10:18:19;;;;;;;0.10;0.10;;;;;;;-145.06;48.22;52758.47;11303124;26;20462;-67
2024/04/15 10:23:21;;;;;;;0.10;0.10;;;;;;;-145.06;50.50;52667.34;11306368;26;20441;-68
2024/04/15 10:28:22;;;;;;;0.00;0.00;;;;;;;-145.06;47.75;52752.38;11313892;26;19995;-69
2024/04/15 10:33:22;;;;;;;0.00;0.00;;;;;;;-145.06;47.31;52788.84;11293138;26;20010;-68
2024/04/15 10:38:27;;;;;;;0.10;0.10;;;;;;;-145.06;49.29;52778.72;11303337;26;20003;-69
2024/04/15 10:43:27;;;;;;;0.00;0.00;;;;;;;-145.06;47.40;52843.50;11296961;26;20013;-68
2024/04/15 10:48:28;;;;;;;0.10;0.10;;;;;;;-145.06;46.69;52845.53;11304352;26;20003;-68
2024/04/15 10:53:28;;;;;;;0.00;0.00;;;;;;;-145.06;49.18;52730.13;11314557;26;20070;-67
2024/04/15 10:58:28;;;;;;;0.10;0.10;;;;;;;-145.06;45.67;52819.19;11302863;26;20456;-69
2024/04/15 11:03:29;;;;;;;0.10;0.10;;;;;;;-145.06;45.96;52875.88;11288555;26;20432;-68
2024/04/15 11:08:30;;;;;;;0.00;0.00;;;;;;;-145.06;45.86;52932.56;11303770;26;20016;-68
2024/04/15 11:13:30;;;;;;;0.00;0.00;;;;;;;-145.06;46.97;52981.16;11313947;26;20592;-69
2024/04/15 11:18:30;;;;;;;0.00;0.00;;;;;;;-145.06;49.31;52981.16;11320075;26;20025;-68
2024/04/15 11:23:31;;;;;;;0.10;0.10;;;;;;;-145.06;52.09;52964.97;11310047;26;20295;-68
2024/04/15 11:28:33;;;;;;;0.10;0.10;;;;;;;-145.06;54.34;52934.59;11298848;26;20075;-69
2024/04/15 11:33:34;;;;;;;0.00;0.00;;;;;;;-145.06;55.54;52960.91;11296350;26;20009;-67
2024/04/15 11:38:34;;;;;;;0.10;0.10;;;;;;;-145.06;60.78;52930.56;11302486;26;20012;-68
2024/04/15 11:43:36;;;;;;;0.10;0.10;;;;;;;-145.06;65.98;52914.34;11303819;26;20013;-68
2024/04/15 11:48:37;;;;;;;0.10;0.10;;;;;;;-145.06;65.29;52924.47;11294660;26;20013;-68
2024/04/15 11:53:37;;;;;;;0.10;0.10;;;;;;;-145.06;69.75;52936.63;11313130;26;20013;-67
2024/04/15 11:58:37;;;;;;;0.03;0.03;;;;;;;-145.06;81.06;52847.53;11320124;25;20576;-69
2024/04/15 12:03:38;;;;;;;0.00;0.00;;;;;;;-145.06;85.66;52790.84;11306591;26;20014;-70
2024/04/15 12:08:39;;;;;;;0.10;0.10;;;;;;;-145.06;85.33;52766.56;11298390;26;20010;-70
2024/04/15 12:13:40;;;;;;;0.10;0.10;;;;;;;-145.06;89.72;52665.34;11287558;26;20006;-69
2024/04/15 12:18:40;;;;;;;0.10;0.10;;;;;;;-145.06;86.01;52608.66;11300294;25;20007;-69
2024/04/15 12:23:41;;;;;;;0.10;0.10;;;;;;;-145.06;72.01;52722.03;11300124;26;20443;-68
2024/04/15 12:28:41;;;;;;;0.10;0.10;;;;;;;-145.06;71.21;52730.13;11301605;26;20343;-69
2024/04/15 12:33:42;;;;;;;0.10;0.10;;;;;;;-145.06;70.68;52790.84;11305385;26;20358;-69
2024/04/15 12:38:43;;;;;;;0.10;0.10;;;;;;;-145.06;79.23;52796.94;11305662;26;20002;-68
2024/04/15 12:43:43;;;;;;;0.10;0.10;;;;;;;-145.06;79.34;52843.50;11303547;26;20367;-68
2024/04/15 12:48:44;;;;;;;0.10;0.10;;;;;;;-145.06;81.58;52774.66;11308273;26;20010;-68
2024/04/15 12:53:44;;;;;;;0.10;0.10;;;;;;;-145.06;82.22;52730.13;11314607;26;20013;-69
2024/04/15 12:58:44;;;;;;;0.10;0.10;;;;;;;-145.06;79.60;52726.06;11317916;26;19998;-68
2024/04/15 13:03:45;;;;;;;0.10;0.10;;;;;;;-145.06;72.67;52713.91;11307910;26;20003;-69
2024/04/15 13:08:46;;;;;;;0.10;0.10;;;;;;;-145.06;71.85;52722.03;11310276;26;19995;-69
2024/04/15 13:13:46;;;;;;;0.10;0.10;;;;;;;-145.06;74.08;52758.47;11306263;26;20018;-69
2024/04/15 13:18:46;;;;;;;0.10;0.10;;;;;;;-145.06;78.57;52722.03;11299548;26;19998;-68
2024/04/15 13:23:50;;;;;;;0.10;0.10;;;;;;;-145.06;72.14;52732.13;11307744;26;20003;-69
2024/04/15 13:28:50;;;;;;;0.10;0.10;;;;;;;-145.06;70.58;52703.78;11312367;26;20010;-69
2024/04/15 13:33:51;;;;;;;0.10;0.10;;;;;;;-145.06;67.15;52703.78;11301386;26;20048;-69
2024/04/15 13:38:52;;;;;;;0.10;0.10;;;;;;;-145.06;69.67;52709.88;11303745;26;20075;-67
2024/04/15 13:43:52;;;;;;;0.00;0.00;;;;;;;-145.06;72.66;52705.81;11317266;26;20421;-68
2024/04/15 13:48:52;;;;;;;0.10;0.10;;;;;;;-145.06;70.93;52709.88;11304821;26;20456;-68
2024/04/15 13:53:53;;;;;;;0.10;0.10;;;;;;;-145.06;66.17;52736.19;11308997;26;20010;-69
2024/04/15 13:58:53;;;;;;;0.10;0.10;;;;;;;-145.06;66.98;52782.75;11311445;26;20010;-69
2024/04/15 14:03:54;;;;;;;0.10;0.10;;;;;;;-145.06;69.81;52776.69;11326510;26;20024;-67
2024/04/15 14:08:55;;;;;;;0.00;0.00;;;;;;;-145.06;71.69;52780.72;11303433;26;20345;-68
2024/04/15 14:13:55;;;;;;;0.10;0.10;;;;;;;-145.06;75.06;52754.41;11302356;26;19995;-68
2024/04/15 14:18:55;;;;;;;0.10;0.10;;;;;;;-145.06;73.03;52772.63;11290791;26;20083;-67
2024/04/15 14:23:56;;;;;;;0.10;0.10;;;;;;;-145.06;73.87;52782.75;11304471;26;20002;-68
2024/04/15 14:28:57;;;;;;;0.10;0.10;;;;;;;-145.06;75.07;52796.94;11307274;26;20345;-68
2024/04/15 14:33:57;;;;;;;0.10;0.10;;;;;;;-145.06;73.85;52784.78;11297721;26;20488;-68
2024/04/15 14:38:58;;;;;;;0.10;0.10;;;;;;;-145.06;69.05;52790.84;11313442;26;20306;-68
2024/04/15 14:43:58;;;;;;;0.10;0.10;;;;;;;-145.06;69.17;52809.06;11306721;26;20013;-68
2024/04/15 14:48:59;;;;;;;0.00;0.00;;;;;;;-145.06;68.43;52829.31;11312313;26;20010;-68
2024/04/15 14:53:59;;;;;;;0.10;0.10;;;;;;;-145.06;69.39;52833.38;11299030;26;20455;-68
2024/04/15 14:59:00;;;;;;;0.10;0.10;;;;;;;-145.06;68.40;52879.94;11304205;26;20173;-68
2024/04/15 15:04:00;;;;;;;0.10;0.10;;;;;;;-145.06;68.32;52914.34;11311204;26;20003;-67
2024/04/15 15:09:01;;;;;;;0.10;0.10;;;;;;;-145.06;71.55;52851.59;11310226;26;20452;-68
2024/04/15 15:14:01;;;;;;;0.10;0.10;;;;;;;-145.06;70.69;52835.41;11302722;26;19998;-68
2024/04/15 15:19:02;;;;;;;0.05;0.05;;;;;;;-145.06;64.83;52835.41;11302477;26;20005;-68
2024/04/15 15:24:02;;;;;;;0.10;0.10;;;;;;;-145.06;65.18;52831.34;11311295;26;20115;-69
2024/04/15 15:29:03;;;;;;;0.10;0.10;;;;;;;-145.06;65.58;52833.38;11303120;26;19998;-68
2024/04/15 15:34:04;;;;;;;0.10;0.10;;;;;;;-145.06;65.27;52873.88;11302283;26;20004;-68
2024/04/15 15:39:04;;;;;;;0.10;0.10;;;;;;;-145.06;68.80;52884.00;11308318;26;20452;-68
2024/04/15 15:44:04;;;;;;;0.00;0.00;;;;;;;-145.06;73.44;52875.88;11293461;26;20265;-67
2024/04/15 15:49:05;;;;;;;0.10;0.10;;;;;;;-145.06;76.83;52908.28;11317709;26;20322;-68
2024/04/15 15:54:06;;;;;;;0.00;0.00;;;;;;;-145.06;84.95;52881.97;11302302;26;20039;-68
2024/04/15 15:59:09;;;;;;;0.10;0.10;;;;;;;-145.06;88.31;52871.84;11301426;26;20221;-68
2024/04/15 16:04:09;;;;;;;0.10;0.10;;;;;;;-145.06;91.08;52886.00;11298258;26;20075;-68
2024/04/15 16:09:10;;;;;;;0.10;0.10;;;;;;;-145.06;92.02;52884.00;11297766;26;19995;-68
2024/04/15 16:14:12;;;;;;;0.00;0.00;;;;;;;-145.06;92.58;52855.63;11302028;26;20022;-68
2024/04/15 16:19:14;;;;;;;0.00;0.00;;;;;;;-145.06;92.15;52861.72;11304238;26;20005;-67
2024/04/15 16:24:15;;;;;;;0.10;0.10;;;;;;;-145.06;91.64;52884.00;11288753;26;20420;-67
2024/04/15 16:29:15;;;;;;;0.10;0.10;;;;;;;-145.06;92.56;52879.94;11299201;26;20047;-68
2024/04/15 16:34:15;;;;;;;0.10;0.10;;;;;;;-145.06;91.10;52881.97;11289979;26;19995;-68
2024/04/15 16:39:16;;;;;;;0.10;0.10;;;;;;;-145.06;91.46;52877.91;11300551;26;20013;-67
2024/04/15 16:44:16;;;;;;;0.10;0.10;;;;;;;-145.06;91.89;52888.03;11305732;26;20346;-68
2024/04/15 16:49:17;;;;;;;0.10;0.10;;;;;;;-145.06;92.59;52865.75;11316008;26;20089;-68
2024/04/15 16:54:17;;;;;;;0.10;0.10;;;;;;;-145.06;96.00;52898.16;11310177;26;20021;-67
2024/04/15 16:59:17;;;;;;;0.10;0.10;;;;;;;-145.06;98.93;52859.69;11298817;26;20682;-68
2024/04/15 17:04:18;;;;;;;0.00;0.00;;;;;;;-145.06;100.00;52890.06;11300696;26;20089;-67
2024/04/15 17:09:18;;;;;;;0.00;0.00;;;;;;;-145.06;100.00;52884.00;11301297;26;20075;-68
2024/04/15 17:14:18;;;;;;;0.10;0.10;;;;;;;-145.06;100.00;52871.84;11296112;26;20070;-67
2024/04/15 17:19:19;;;;;;;0.00;0.00;;;;;;;-145.06;100.00;52871.84;11294623;26;20329;-67
2024/04/15 17:24:19;;;;;;;0.10;0.10;;;;;;;-145.06;100.00;52867.78;11308807;26;20017;-67
2024/04/15 17:29:19;;;;;;;0.10;0.10;;;;;;;-145.06;100.00;52831.34;11306401;26;20333;-67
2024/04/15 17:34:19;;;;;;;0.05;0.05;;;;;;;-145.06;100.00;52819.19;11298325;26;20003;-66
2024/04/15 17:39:20;;;;;;;0.10;0.10;;;;;;;-145.06;100.00;52798.94;11294796;26;20072;-67
2024/04/15 17:44:20;;;;;;;0.00;0.00;;;;;;;-145.06;100.00;52798.94;11297600;26;20039;-67
2024/04/15 17:49:21;;;;;;;0.10;0.10;;;;;;;-145.06;100.00;52782.75;11296824;26;20601;-67
2024/04/15 17:54:21;;;;;;;0.00;0.00;;;;;;;-145.06;100.00;52774.66;11295020;26;20013;-68
2024/04/15 17:59:23;;;;;;;0.10;0.10;;;;;;;-145.06;100.00;52754.41;11293771;26;19999;-68
2024/04/15 18:04:24;;;;;;;0.10;0.10;;;;;;;-145.06;100.00;52752.38;11307921;26;19995;-67
2024/04/15 18:09:24;;;;;;;0.00;0.00;;;;;;;-145.06;100.00;52782.75;11301363;26;20010;-67
2024/04/15 18:14:24;;;;;;;0.10;0.10;;;;;;;-145.06;100.00;52827.28;11303581;26;20396;-67
2024/04/15 18:19:25;;;;;;;0.10;0.10;;;;;;;-145.06;100.00;52855.63;11306228;26;20005;-67
2024/04/15 18:24:28;;;;;;;0.10;0.10;;;;;;;-145.06;100.00;52871.84;11295291;26;19998;-67
2024/04/15 18:29:28;;;;;;;0.00;0.00;;;;;;;-145.06;100.00;52875.88;11297452;26;19999;-67
2024/04/15 18:34:28;;;;;;;0.10;0.10;;;;;;;-145.06;100.00;52898.16;11296591;26;20355;-67
2024/04/15 18:39:29;;;;;;;0.00;0.00;;;;;;;-145.06;100.00;52892.09;11298475;26;19998;-67
2024/04/15 18:44:29;;;;;;;0.10;0.10;;;;;;;-145.06;100.00;52910.31;11302562;26;20001;-67
2024/04/15 18:49:29;;;;;;;0.00;0.00;;;;;;;-145.06;100.00;52916.38;11297231;26;20369;-67
2024/04/15 18:54:30;;;;;;;0.00;0.00;;;;;;;-145.06;100.00;52932.56;11302849;26;20026;-67
2024/04/15 18:59:30;;;;;;;0.00;0.00;;;;;;;-145.06;100.00;52928.53;11298407;26;20766;-67
2024/04/15 19:04:30;;;;;;;0.00;0.00;;;;;;;-145.06;100.00;52930.56;11303373;26;20067;-67
2024/04/15 19:09:31;;;;;;;0.10;0.10;;;;;;;-145.06;100.00;52910.31;11297228;26;20006;-67
2024/04/15 19:14:31;;;;;;;0.00;0.00;;;;;;;-145.06;100.00;52934.59;11301078;26;20007;-67
2024/04/15 19:19:31;;;;;;;0.10;0.10;;;;;;;-145.06;100.00;52948.78;11293832;26;20013;-68
2024/04/15 19:24:32;;;;;;;0.00;0.00;;;;;;;-145.06;100.00;52948.78;11309151;26;20858;-67
2024/04/15 19:29:32;;;;;;;0.00;0.00;;;;;;;-145.06;100.00;52918.41;11296233;26;20052;-66
2024/04/15 19:34:32;;;;;;;0.00;0.00;;;;;;;-145.06;100.00;52900.19;11327169;26;20003;-67
2024/04/15 19:39:33;;;;;;;0.00;0.00;;;;;;;-145.06;100.00;52877.91;11304151;26;19998;-67
2024/04/15 19:44:33;;;;;;;0.00;0.00;;;;;;;-145.06;100.00;52884.00;11304491;26;20886;-67
2024/04/15 19:49:33;;;;;;;0.00;0.00;;;;;;;-145.06;100.00;52888.03;11306257;26;20235;-67
2024/04/15 19:54:33;;;;;;;0.05;0.05;;;;;;;-145.06;100.00;52879.94;11296486;26;19998;-67
2024/04/15 19:59:34;;;;;;;0.00;0.00;;;;;;;-145.06;100.00;52851.59;11303137;26;20431;-67
2024/04/15 20:04:34;;;;;;;0.00;0.00;;;;;;;-145.06;100.00;52867.78;11318934;26;20009;-66
2024/04/15 20:09:34;;;;;;;0.00;0.00;;;;;;;-145.06;100.00;52855.63;11316293;26;20470;-67
2024/04/15 20:14:35;;;;;;;0.10;0.10;;;;;;;-145.06;100.00;52855.63;11293767;26;20066;-66
2024/04/15 20:19:45;;;;;;;0.00;0.00;;;;;;;-145.06;100.00;52877.91;11293904;26;20009;-67
2024/04/15 20:24:46;;;;;;;0.00;0.00;;;;;;;-145.06;100.00;52881.97;11299628;26;20014;-66
2024/04/15 20:29:46;;;;;;;0.00;0.00;;;;;;;-145.06;100.00;52873.88;11302208;26;20011;-66
2024/04/15 20:34:46;;;;;;;0.00;0.00;;;;;;;-145.06;100.00;52881.97;11301758;26;20241;-66
2024/04/15 20:39:47;;;;;;;0.08;0.08;;;;;;;-145.06;100.00;52884.00;11307766;26;20014;-66
2024/04/15 20:44:47;;;;;;;0.00;0.00;;;;;;;-145.06;100.00;52845.53;11306356;26;20017;-67
2024/04/15 20:49:47;;;;;;;0.00;0.00;;;;;;;-145.06;100.00;52841.47;11293692;26;20006;-66
2024/04/15 20:54:49;;;;;;;0.00;0.00;;;;;;;-145.06;100.00;52831.34;11289171;26;20285;-66
2024/04/15 20:59:49;;;;;;;0.00;0.00;;;;;;;-145.06;100.00;52837.41;11309641;26;19998;-65
2024/04/15 21:04:50;;;;;;;0.00;0.00;;;;;;;-145.06;100.00;52807.06;11302704;26;20014;-65
2024/04/15 21:09:50;;;;;;;0.00;0.00;;;;;;;-145.06;100.00;52823.25;11312595;26;20017;-66
2024/04/15 21:14:51;;;;;;;0.00;0.00;;;;;;;-145.06;100.00;52807.06;11302810;26;20122;-66
2024/04/15 21:19:51;;;;;;;0.00;0.00;;;;;;;-145.06;100.00;52807.06;11304522;26;20232;-66
2024/04/15 21:24:51;;;;;;;0.00;0.00;;;;;;;-145.06;100.00;52803.00;11299242;26;20295;-66
2024/04/15 21:29:53;;;;;;;0.00;0.00;;;;;;;-145.06;100.00;52780.72;11301646;26;20360;-66
2024/04/15 21:34:54;;;;;;;0.10;0.10;;;;;;;-145.06;100.00;52859.69;11304694;26;20021;-66
2024/04/15 21:39:54;;;;;;;0.10;0.10;;;;;;;-145.06;100.00;52875.88;11314105;26;20013;-66
2024/04/15 21:44:54;;;;;;;0.00;0.00;;;;;;;-145.06;100.00;52871.84;11304737;26;20019;-66
2024/04/15 21:49:54;;;;;;;0.00;0.00;;;;;;;-145.06;100.00;52894.09;11305723;26;20075;-65
2024/04/15 21:54:55;;;;;;;0.00;0.00;;;;;;;-145.06;100.00;52916.38;11300049;26;20002;-65
2024/04/15 21:59:55;;;;;;;0.00;0.00;;;;;;;-145.06;100.00;52938.66;11302135;26;20003;-65
2024/04/15 22:04:55;;;;;;;0.00;0.00;;;;;;;-145.06;100.00;52946.75;11305864;26;20017;-66
2024/04/15 22:09:56;;;;;;;0.00;0.00;;;;;;;-145.06;100.00;52936.63;11301305;26;19999;-66
2024/04/15 22:14:56;;;;;;;0.00;0.00;;;;;;;-145.06;100.00;52940.69;11312987;26;20010;-66
2024/04/15 22:19:56;;;;;;;0.00;0.00;;;;;;;-145.06;100.00;52912.34;11304874;26;20472;-66
2024/04/15 22:24:57;;;;;;;0.00;0.00;;;;;;;-145.06;100.00;52900.19;11303139;26;19998;-65
2024/04/15 22:29:58;;;;;;;0.00;0.00;;;;;;;-145.06;100.00;52890.06;11304728;26;20448;-66
2024/04/15 22:34:59;;;;;;;0.00;0.00;;;;;;;-145.06;100.00;52922.44;11312024;26;20013;-65